Farmingdale, New York
Current Conditions -  °F | °C
As of 1:00 AM on Wednesday 22 Oct 2014 (Local Time) from KFRG Reporting Station
Light Rain Light Rain  
Wind Chill: 58°   Ceiling: 5500
Heat Index: 58°   Visibility: 8mi
Dew Point: 55°   Wind: 8mph
Humidity: 90%   Direction: 50°NE
Pressure: 29.9"   Gusts: NA
Location:  40.73°N, 73.44°W
Report Text: KFRG 220500Z AUTO 05007KT 8SM -RA FEW007 BKN055 OVC085 14/13 A2990 RMK AO2 RAB0457 P0001 T01440128
Loading
Personal Weather Stations






























Interactive Weather Map New forecast layout! Learn more

10-Day Weather Forecast

Advertisements
Track Severe Weather on mobile